createdAt,value
2019-06-27T00:00:35.033Z,9.03
2019-06-27T00:03:05.763Z,11.47
2019-06-27T00:05:36.394Z,11.93
2019-06-27T00:08:06.827Z,9.27
2019-06-27T00:10:37.365Z,8.90
2019-06-27T00:13:07.773Z,10.87
2019-06-27T00:15:38.440Z,10.83
2019-06-27T00:18:08.820Z,10.80
2019-06-27T00:20:40.100Z,9.90
2019-06-27T00:23:10.759Z,12.90
2019-06-27T00:25:41.079Z,9.07
2019-06-27T00:28:11.991Z,11.90
2019-06-27T00:30:45.280Z,12.27
2019-06-27T00:33:16.305Z,12.13
2019-06-27T00:35:47.770Z,8.97
2019-06-27T00:38:18.972Z,8.97
2019-06-27T00:40:49.309Z,9.17
2019-06-27T00:43:20.416Z,8.73
2019-06-27T00:45:50.769Z,10.70
2019-06-27T00:48:21.631Z,11.87
2019-06-27T00:51:11.087Z,6.97
2019-06-27T00:53:42.046Z,12.57
2019-06-27T00:56:12.814Z,11.30
2019-06-27T00:58:43.177Z,8.43
2019-06-27T01:01:13.577Z,7.80
2019-06-27T01:03:43.978Z,11.07
2019-06-27T01:06:14.907Z,9.80
2019-06-27T01:08:45.277Z,5.60
2019-06-27T01:11:16.114Z,8.23
2019-06-27T01:13:46.756Z,8.07
2019-06-27T01:16:17.493Z,7.80
2019-06-27T01:18:48.274Z,9.37
2019-06-27T01:21:18.607Z,7.83
2019-06-27T01:23:48.942Z,9.13
2019-06-27T01:26:19.311Z,9.50
2019-06-27T01:28:50.014Z,6.53
2019-06-27T01:31:23.131Z,9.50
2019-06-27T01:33:53.870Z,9.23
2019-06-27T01:36:24.231Z,11.87
2019-06-27T01:38:55.160Z,7.47
2019-06-27T01:41:25.518Z,6.47
2019-06-27T01:43:55.930Z,7.77
2019-06-27T01:46:26.268Z,7.97
2019-06-27T01:48:56.998Z,8.83
2019-06-27T01:51:27.761Z,11.50
2019-06-27T01:53:58.112Z,8.67
2019-06-27T01:56:28.536Z,5.10
2019-06-27T01:58:59.045Z,7.23
2019-06-27T02:01:29.680Z,9.43
2019-06-27T02:04:00.297Z,8.37
2019-06-27T02:06:31.524Z,7.60
2019-06-27T02:09:02.232Z,6.63
2019-06-27T02:11:32.609Z,6.60
2019-06-27T02:14:03.265Z,7.77
2019-06-27T02:16:34.409Z,10.17
2019-06-27T02:19:04.915Z,7.33
2019-06-27T02:21:35.294Z,9.90
2019-06-27T02:24:06.071Z,9.13
2019-06-27T02:26:36.629Z,8.63
2019-06-27T02:29:07.050Z,8.83
2019-06-27T02:31:37.714Z,12.17
2019-06-27T02:34:08.078Z,5.93
2019-06-27T02:36:38.421Z,8.73
2019-06-27T02:39:09.139Z,7.80
2019-06-27T02:41:39.535Z,8.40
2019-06-27T02:44:09.924Z,6.90
2019-06-27T02:46:40.907Z,9.13
2019-06-27T02:49:11.587Z,9.07
2019-06-27T02:51:41.945Z,10.70
2019-06-27T02:54:12.321Z,10.87
2019-06-27T02:56:42.675Z,8.10
2019-06-27T02:59:13.701Z,8.37
2019-06-27T03:01:44.872Z,11.23
2019-06-27T03:04:15.314Z,8.27
2019-06-27T03:06:45.796Z,7.53
2019-06-27T03:09:16.598Z,9.47
2019-06-27T03:11:47.407Z,8.33
2019-06-27T03:14:18.132Z,10.10
2019-06-27T03:16:48.518Z,9.17
2019-06-27T03:19:19.243Z,11.67
2019-06-27T03:21:49.663Z,12.27
2019-06-27T03:24:20.150Z,10.67
2019-06-27T03:26:52.545Z,10.50
2019-06-27T03:29:24.104Z,8.33
2019-06-27T03:31:55.573Z,13.43
2019-06-27T03:34:26.579Z,11.83
2019-06-27T03:37:04.773Z,10.33
2019-06-27T03:39:35.532Z,10.57
2019-06-27T03:42:07.504Z,11.23
2019-06-27T03:44:38.446Z,9.80
2019-06-27T03:47:09.851Z,13.63
2019-06-27T03:49:40.272Z,10.10
2019-06-27T03:52:11.372Z,9.93
2019-06-27T03:54:43.237Z,12.93
2019-06-27T03:57:14.607Z,11.43
2019-06-27T03:59:44.977Z,10.47
2019-06-27T04:02:15.318Z,8.13
2019-06-27T04:04:45.926Z,11.40
2019-06-27T04:07:16.798Z,10.67
2019-06-27T04:09:47.290Z,11.37
2019-06-27T04:12:17.721Z,14.43
2019-06-27T04:14:48.585Z,11.20
2019-06-27T04:17:19.058Z,10.00
2019-06-27T04:19:49.899Z,11.70
2019-06-27T04:22:20.528Z,12.70
2019-06-27T04:24:51.397Z,11.67
2019-06-27T04:27:21.838Z,13.57
2019-06-27T04:29:52.819Z,9.90
2019-06-27T04:32:24.159Z,11.70
2019-06-27T04:34:54.723Z,13.00
2019-06-27T04:37:25.336Z,14.17
2019-06-27T04:39:55.914Z,11.53
2019-06-27T04:42:26.355Z,13.67
2019-06-27T04:44:57.159Z,14.43
2019-06-27T04:47:27.941Z,15.67
2019-06-27T04:49:58.965Z,12.63
2019-06-27T04:52:29.737Z,15.00
2019-06-27T04:55:03.546Z,11.20
2019-06-27T04:57:33.619Z,11.03
2019-06-27T05:00:04.467Z,13.10
2019-06-27T05:02:34.974Z,12.23
2019-06-27T05:05:06.308Z,14.23
2019-06-27T05:07:36.648Z,9.13
2019-06-27T05:10:07.488Z,11.77
2019-06-27T05:12:37.814Z,10.80
2019-06-27T05:15:08.403Z,9.60
2019-06-27T05:17:39.126Z,10.80
2019-06-27T05:20:09.898Z,11.93
2019-06-27T05:22:40.365Z,9.10
2019-06-27T05:25:11.017Z,12.63
2019-06-27T05:27:41.729Z,11.83
2019-06-27T05:30:13.671Z,12.83
2019-06-27T05:32:44.824Z,9.90
2019-06-27T05:35:15.233Z,14.03
2019-06-27T05:37:45.669Z,13.37
2019-06-27T05:40:16.279Z,12.00
2019-06-27T05:42:47.085Z,13.43
2019-06-27T05:45:17.802Z,8.47
2019-06-27T05:47:48.227Z,17.07
2019-06-27T05:50:18.761Z,12.90
2019-06-27T05:52:49.184Z,15.40
2019-06-27T05:55:19.639Z,12.80
2019-06-27T05:57:50.529Z,7.70
2019-06-27T06:00:28.339Z,7.70
2019-06-27T06:02:53.398Z,9.93
2019-06-27T06:05:23.803Z,12.90
2019-06-27T06:07:54.444Z,11.17
2019-06-27T06:10:24.812Z,9.83
2019-06-27T06:12:55.435Z,10.47
2019-06-27T06:15:25.842Z,9.40
2019-06-27T06:17:56.188Z,13.33
2019-06-27T06:20:26.933Z,17.77
2019-06-27T06:22:57.354Z,12.73
2019-06-27T06:25:28.367Z,10.33
2019-06-27T06:27:58.976Z,10.67
2019-06-27T06:30:43.313Z,10.50
2019-06-27T06:33:01.527Z,9.53
2019-06-27T06:35:32.287Z,11.33
2019-06-27T06:38:02.662Z,9.47
2019-06-27T06:40:33.140Z,13.53
2019-06-27T06:43:03.509Z,11.03
2019-06-27T06:45:34.094Z,6.77
2019-06-27T06:48:04.462Z,11.57
2019-06-27T06:50:34.799Z,9.53
2019-06-27T06:53:05.499Z,10.80
2019-06-27T06:55:36.132Z,8.70
2019-06-27T06:58:06.559Z,14.47
2019-06-27T07:00:36.909Z,12.00
2019-06-27T07:03:07.510Z,15.07
2019-06-27T07:05:38.169Z,10.90
2019-06-27T07:08:08.938Z,11.73
2019-06-27T07:10:39.285Z,10.50
2019-06-27T07:13:09.891Z,11.07
2019-06-27T07:15:40.241Z,12.47
2019-06-27T07:18:10.621Z,5.83
2019-06-27T07:20:40.970Z,12.70
2019-06-27T07:23:11.668Z,8.13
2019-06-27T07:25:42.154Z,13.47
2019-06-27T07:28:12.576Z,14.80
2019-06-27T07:30:43.520Z,11.20
2019-06-27T07:33:13.867Z,10.23
2019-06-27T07:35:44.765Z,7.63
2019-06-27T07:38:15.407Z,8.13
2019-06-27T07:40:45.742Z,11.03
2019-06-27T07:43:16.186Z,9.67
2019-06-27T07:45:47.184Z,11.53
2019-06-27T07:48:17.670Z,10.33
2019-06-27T07:50:48.294Z,10.10
2019-06-27T07:53:18.718Z,10.17
2019-06-27T07:55:49.063Z,9.90
2019-06-27T07:58:19.676Z,12.87
2019-06-27T08:00:50.030Z,14.13
2019-06-27T08:03:20.795Z,8.27
2019-06-27T08:05:51.164Z,11.90
2019-06-27T08:08:21.555Z,12.87
2019-06-27T08:10:52.211Z,11.50
2019-06-27T08:13:22.636Z,9.70
2019-06-27T08:15:53.031Z,8.57
2019-06-27T08:18:23.705Z,10.33
2019-06-27T08:20:54.097Z,12.80
2019-06-27T08:23:40.605Z,10.97
2019-06-27T08:25:57.407Z,8.33
2019-06-27T08:28:28.099Z,7.60
2019-06-27T08:30:58.790Z,7.70
2019-06-27T08:33:29.802Z,8.27
2019-06-27T08:36:00.197Z,10.03
2019-06-27T08:38:30.630Z,10.17
2019-06-27T08:41:00.964Z,7.40
2019-06-27T08:43:31.335Z,15.93
2019-06-27T08:46:01.797Z,6.43
2019-06-27T08:48:32.144Z,9.47
2019-06-27T08:51:02.542Z,7.20
2019-06-27T08:53:32.937Z,10.47
2019-06-27T08:56:03.811Z,8.50
2019-06-27T08:58:34.734Z,11.33
2019-06-27T09:01:05.352Z,7.90
2019-06-27T09:03:35.841Z,9.17
2019-06-27T09:06:06.240Z,10.13
2019-06-27T09:08:38.117Z,8.70
2019-06-27T09:11:08.508Z,8.50
2019-06-27T09:13:38.871Z,11.83
2019-06-27T09:16:09.299Z,8.87
2019-06-27T09:18:39.726Z,7.07
2019-06-27T09:21:10.102Z,8.03
2019-06-27T09:23:40.789Z,7.47
2019-06-27T09:26:11.152Z,9.90
2019-06-27T09:28:42.163Z,10.70
2019-06-27T09:31:12.810Z,13.27
2019-06-27T09:33:43.483Z,8.17
2019-06-27T09:36:13.889Z,6.20
2019-06-27T09:38:44.624Z,7.17
2019-06-27T09:41:15.642Z,11.83
2019-06-27T09:43:46.815Z,9.70
2019-06-27T09:46:17.156Z,8.60
2019-06-27T09:48:47.766Z,8.23
2019-06-27T09:51:18.297Z,7.67
2019-06-27T09:53:48.679Z,7.10
2019-06-27T09:56:19.439Z,9.40
2019-06-27T09:58:49.816Z,7.30
2019-06-27T10:01:20.220Z,10.27
2019-06-27T10:03:50.917Z,9.23
2019-06-27T10:06:21.248Z,7.77
2019-06-27T10:08:51.627Z,7.93
2019-06-27T10:11:22.004Z,8.13
2019-06-27T10:13:52.939Z,7.83
2019-06-27T10:16:23.383Z,8.37
2019-06-27T10:18:53.888Z,8.30
2019-06-27T10:21:24.561Z,10.17
2019-06-27T10:23:54.954Z,7.83
2019-06-27T10:26:25.371Z,7.97
2019-06-27T10:28:55.827Z,9.87
2019-06-27T10:31:26.430Z,6.43
2019-06-27T10:33:56.845Z,8.63
2019-06-27T10:36:27.199Z,8.47
2019-06-27T10:38:57.899Z,7.67
2019-06-27T10:41:28.244Z,7.87
2019-06-27T10:43:58.965Z,9.30
2019-06-27T10:46:29.366Z,6.33
2019-06-27T10:49:00.207Z,9.70
2019-06-27T10:51:30.592Z,6.37
2019-06-27T10:54:01.998Z,5.70
2019-06-27T10:56:37.400Z,6.63
2019-06-27T10:59:05.576Z,5.43
2019-06-27T11:01:35.907Z,9.03
2019-06-27T11:04:06.296Z,7.43
2019-06-27T11:06:36.675Z,8.30
2019-06-27T11:09:07.407Z,10.63
2019-06-27T11:11:38.403Z,9.20
2019-06-27T11:14:08.758Z,10.00
2019-06-27T11:16:39.115Z,13.40
2019-06-27T11:19:09.460Z,6.27
2019-06-27T11:21:39.871Z,7.17
2019-06-27T11:24:10.558Z,7.57
2019-06-27T11:26:41.524Z,7.23
2019-06-27T11:29:12.000Z,12.00
2019-06-27T11:31:42.338Z,9.57
2019-06-27T11:34:13.097Z,10.60
2019-06-27T11:36:46.577Z,8.27
2019-06-27T11:39:16.214Z,9.17
2019-06-27T11:41:46.894Z,7.93
2019-06-27T11:44:17.627Z,11.50
2019-06-27T11:46:48.279Z,9.83
2019-06-27T11:49:18.946Z,7.40
2019-06-27T11:51:49.432Z,8.30
2019-06-27T11:54:20.048Z,8.57
2019-06-27T11:56:50.437Z,10.23
2019-06-27T11:59:20.757Z,6.67
2019-06-27T12:01:51.171Z,8.70
2019-06-27T12:04:21.912Z,8.23
2019-06-27T12:06:52.841Z,8.50
2019-06-27T12:09:23.197Z,8.97
2019-06-27T12:11:53.545Z,9.10
2019-06-27T12:14:23.939Z,6.60
2019-06-27T12:16:54.358Z,10.53
2019-06-27T12:19:24.749Z,10.53
2019-06-27T12:21:55.100Z,5.97
2019-06-27T12:24:25.558Z,7.00
2019-06-27T12:26:56.008Z,10.00
2019-06-27T12:29:26.735Z,5.13
2019-06-27T12:31:57.112Z,8.90
2019-06-27T12:34:27.567Z,5.77
2019-06-27T12:36:58.226Z,10.27
2019-06-27T12:39:29.047Z,7.37
2019-06-27T12:41:59.732Z,8.27
2019-06-27T12:44:30.091Z,7.33
2019-06-27T12:47:00.750Z,8.20
2019-06-27T12:49:49.776Z,8.70
2019-06-27T12:52:03.473Z,9.70
2019-06-27T12:54:33.895Z,5.40
2019-06-27T12:57:04.401Z,6.83
2019-06-27T12:59:34.725Z,8.93
2019-06-27T13:02:05.181Z,5.43
2019-06-27T13:04:35.790Z,9.23
2019-06-27T13:07:06.935Z,13.37
2019-06-27T13:09:37.607Z,7.20
2019-06-27T13:12:08.244Z,6.17
2019-06-27T13:14:39.010Z,5.93
2019-06-27T13:17:09.637Z,6.00
2019-06-27T13:19:40.274Z,10.50
2019-06-27T13:22:10.993Z,6.77
2019-06-27T13:24:41.373Z,6.00
2019-06-27T13:27:15.771Z,9.40
2019-06-27T13:29:46.453Z,12.33
2019-06-27T13:32:16.893Z,5.67
2019-06-27T13:34:47.289Z,7.17
2019-06-27T13:37:17.966Z,5.63
2019-06-27T13:39:48.381Z,5.60
2019-06-27T13:42:19.334Z,6.43
2019-06-27T13:44:50.788Z,4.50
2019-06-27T13:47:21.177Z,5.87
2019-06-27T13:49:52.461Z,8.70
2019-06-27T13:52:23.381Z,7.30
2019-06-27T13:54:53.751Z,8.87
2019-06-27T13:57:24.415Z,5.67
2019-06-27T13:59:54.780Z,7.50
2019-06-27T14:02:25.678Z,7.33
2019-06-27T14:04:57.799Z,12.00
2019-06-27T14:07:28.367Z,7.43
2019-06-27T14:09:59.039Z,3.87
2019-06-27T14:12:32.100Z,6.73
2019-06-27T14:15:02.471Z,4.93
2019-06-27T14:17:33.103Z,4.90
2019-06-27T14:20:03.820Z,6.37
2019-06-27T14:22:34.322Z,6.53
2019-06-27T14:25:04.669Z,3.60
2019-06-27T14:27:36.080Z,4.07
2019-06-27T14:30:07.571Z,6.33
2019-06-27T14:32:37.929Z,5.60
2019-06-27T14:35:15.974Z,4.77
2019-06-27T14:37:41.799Z,4.50
2019-06-27T14:40:14.603Z,4.07
2019-06-27T14:42:45.395Z,3.67
2019-06-27T14:45:16.931Z,8.23
2019-06-27T14:47:47.325Z,6.47
2019-06-27T14:50:18.029Z,4.23
2019-06-27T14:52:48.710Z,4.90
2019-06-27T14:55:19.623Z,3.50
2019-06-27T14:57:53.567Z,4.97
2019-06-27T15:00:30.181Z,5.73
2019-06-27T15:03:11.288Z,3.30
2019-06-27T15:05:44.475Z,5.77
2019-06-27T15:08:15.080Z,6.03
2019-06-27T15:10:45.892Z,5.30
2019-06-27T15:13:16.499Z,3.87
2019-06-27T15:15:48.328Z,4.53
2019-06-27T15:18:21.096Z,5.53
2019-06-27T15:20:51.569Z,5.33
2019-06-27T15:23:22.659Z,4.57
2019-06-27T15:25:53.074Z,5.93
2019-06-27T15:28:24.109Z,5.47
2019-06-27T15:30:54.741Z,3.80
2019-06-27T15:33:25.414Z,7.27
2019-06-27T15:35:55.869Z,3.77
2019-06-27T15:38:26.550Z,4.00
2019-06-27T15:40:57.206Z,7.57
2019-06-27T15:43:27.637Z,7.20
2019-06-27T15:46:01.950Z,7.77
2019-06-27T15:48:32.663Z,4.33
2019-06-27T15:51:03.012Z,5.93
2019-06-27T15:53:33.373Z,4.33
2019-06-27T15:56:03.782Z,3.70
2019-06-27T15:58:34.118Z,4.03
2019-06-27T16:01:04.447Z,3.23
2019-06-27T16:03:35.174Z,5.77
2019-06-27T16:06:10.160Z,3.33
2019-06-27T16:08:37.946Z,6.13
2019-06-27T16:11:08.390Z,3.63
2019-06-27T16:13:38.756Z,4.90
2019-06-27T16:16:10.759Z,4.37
2019-06-27T16:18:42.829Z,6.67
2019-06-27T16:21:13.512Z,3.27
2019-06-27T16:23:44.460Z,5.30
2019-06-27T16:26:15.425Z,3.03
2019-06-27T16:28:45.895Z,5.67
2019-06-27T16:31:16.397Z,3.47
2019-06-27T16:33:46.842Z,3.60
2019-06-27T16:36:25.605Z,4.20
2019-06-27T16:38:50.397Z,6.40
2019-06-27T16:41:21.275Z,4.40
2019-06-27T16:43:51.782Z,3.23
2019-06-27T16:46:22.847Z,3.07
2019-06-27T16:48:53.354Z,3.73
2019-06-27T16:51:26.321Z,3.47
2019-06-27T16:53:56.883Z,3.17
2019-06-27T16:56:27.301Z,2.10
2019-06-27T16:58:57.845Z,4.07
2019-06-27T17:01:28.234Z,2.20
2019-06-27T17:03:58.615Z,4.20
2019-06-27T17:06:41.415Z,3.40
2019-06-27T17:09:01.438Z,5.93
2019-06-27T17:11:31.792Z,5.43
2019-06-27T17:14:02.229Z,2.67
2019-06-27T17:16:32.597Z,3.57
2019-06-27T17:19:03.468Z,2.20
2019-06-27T17:21:33.978Z,5.20
2019-06-27T17:24:04.639Z,2.73
2019-06-27T17:26:34.987Z,2.83
2019-06-27T17:29:05.771Z,6.13
2019-06-27T17:31:36.856Z,4.17
2019-06-27T17:34:07.366Z,3.43
2019-06-27T17:36:37.977Z,2.90
2019-06-27T17:39:08.460Z,3.77
2019-06-27T17:41:38.908Z,4.93
2019-06-27T17:44:10.117Z,4.17
2019-06-27T17:46:40.445Z,4.53
2019-06-27T17:49:11.976Z,7.23
2019-06-27T17:51:42.635Z,4.80
2019-06-27T17:54:13.127Z,5.90
2019-06-27T17:56:44.130Z,4.50
2019-06-27T17:59:14.536Z,4.83
2019-06-27T18:01:45.513Z,5.53
2019-06-27T18:04:16.251Z,6.80
2019-06-27T18:06:46.605Z,9.83
2019-06-27T18:09:36.360Z,5.03
2019-06-27T18:12:07.518Z,6.73
2019-06-27T18:14:37.967Z,12.13
2019-06-27T18:17:08.348Z,7.70
2019-06-27T18:19:38.720Z,8.37
2019-06-27T18:22:09.506Z,8.40
2019-06-27T18:24:41.720Z,6.17
2019-06-27T18:27:12.516Z,8.50
2019-06-27T18:29:43.149Z,10.97
2019-06-27T18:32:13.663Z,6.73
2019-06-27T18:34:44.312Z,6.77
2019-06-27T18:37:28.782Z,8.13
2019-06-27T18:39:47.570Z,6.17
2019-06-27T18:42:17.931Z,7.57
2019-06-27T18:44:48.403Z,7.37
2019-06-27T18:47:19.136Z,9.30
2019-06-27T18:49:49.582Z,7.77
2019-06-27T18:52:19.964Z,9.00
2019-06-27T18:54:51.001Z,7.30
2019-06-27T18:57:21.386Z,10.87
2019-06-27T18:59:53.828Z,13.10
2019-06-27T19:02:24.133Z,6.93
2019-06-27T19:04:54.883Z,11.60
2019-06-27T19:07:25.278Z,7.30
2019-06-27T19:09:55.759Z,6.27
2019-06-27T19:12:26.092Z,10.73
2019-06-27T19:14:56.438Z,6.30
2019-06-27T19:17:27.387Z,7.00
2019-06-27T19:20:07.686Z,7.57
2019-06-27T19:22:56.050Z,8.67
2019-06-27T19:25:32.331Z,8.20
2019-06-27T19:28:03.627Z,7.30
2019-06-27T19:30:34.629Z,7.63
2019-06-27T19:33:15.914Z,7.00
2019-06-27T19:35:54.567Z,6.33
2019-06-27T19:38:32.441Z,6.73
2019-06-27T19:41:09.085Z,7.63
2019-06-27T19:43:43.958Z,7.73
2019-06-27T19:46:46.255Z,4.83
2019-06-27T19:49:19.579Z,8.60
2019-06-27T19:52:49.045Z,7.03
2019-06-27T19:55:32.331Z,6.90
2019-06-27T19:58:09.771Z,7.53
2019-06-27T20:01:25.138Z,6.13
2019-06-27T20:04:33.983Z,5.20
2019-06-27T20:07:06.312Z,9.60
2019-06-27T20:09:41.263Z,5.97
2019-06-27T20:12:20.621Z,6.77
2019-06-27T20:14:51.585Z,8.87
2019-06-27T20:18:17.700Z,8.17
2019-06-27T20:21:38.805Z,4.73
2019-06-27T20:24:09.937Z,9.83
2019-06-27T20:26:40.672Z,6.37
2019-06-27T20:29:11.698Z,7.73
2019-06-27T20:31:42.739Z,5.60
2019-06-27T20:34:13.085Z,10.30
2019-06-27T20:36:43.894Z,6.90
2019-06-27T20:39:14.314Z,6.57
2019-06-27T20:41:44.951Z,6.13
2019-06-27T20:44:15.336Z,9.97
2019-06-27T20:46:45.703Z,8.47
2019-06-27T20:49:16.186Z,8.30
2019-06-27T20:51:46.831Z,6.20
2019-06-27T20:54:17.298Z,8.30
2019-06-27T20:56:48.307Z,7.23
2019-06-27T20:59:18.996Z,7.77
2019-06-27T21:01:49.391Z,8.27
2019-06-27T21:04:19.799Z,11.33
2019-06-27T21:06:50.405Z,6.80
2019-06-27T21:09:20.804Z,10.13
2019-06-27T21:11:51.169Z,5.37
2019-06-27T21:14:21.819Z,7.07
2019-06-27T21:16:52.462Z,5.83
2019-06-27T21:19:22.862Z,6.80
2019-06-27T21:21:53.603Z,9.00
2019-06-27T21:24:24.262Z,7.10
2019-06-27T21:26:55.271Z,6.70
2019-06-27T21:29:25.654Z,9.40
2019-06-27T21:31:56.133Z,10.07
2019-06-27T21:34:26.637Z,7.73
2019-06-27T21:36:57.013Z,7.23
2019-06-27T21:39:27.407Z,8.00
2019-06-27T21:41:58.842Z,7.20
2019-06-27T21:44:29.711Z,7.80
2019-06-27T21:47:00.099Z,6.30
2019-06-27T21:49:31.001Z,7.67
2019-06-27T21:52:01.470Z,8.83
2019-06-27T21:54:31.809Z,9.10
2019-06-27T21:57:02.170Z,8.50
2019-06-27T21:59:32.768Z,6.60
2019-06-27T22:02:03.264Z,7.97
2019-06-27T22:04:36.105Z,7.63
2019-06-27T22:07:06.479Z,6.40
2019-06-27T22:09:36.851Z,7.43
2019-06-27T22:12:07.280Z,11.07
2019-06-27T22:14:37.661Z,9.67
2019-06-27T22:17:08.318Z,10.37
2019-06-27T22:19:38.738Z,9.47
2019-06-27T22:22:09.460Z,8.53
2019-06-27T22:24:39.852Z,9.53
2019-06-27T22:27:10.756Z,5.27
2019-06-27T22:29:41.167Z,8.17
2019-06-27T22:32:11.547Z,7.90
2019-06-27T22:34:42.252Z,12.20
2019-06-27T22:37:12.985Z,11.53
2019-06-27T22:40:01.203Z,9.17
2019-06-27T22:42:49.297Z,9.53
2019-06-27T22:45:37.188Z,9.53
2019-06-27T22:48:12.556Z,9.07
2019-06-27T22:51:08.219Z,11.33
2019-06-27T22:53:44.279Z,11.90
2019-06-27T22:56:14.668Z,10.63
2019-06-27T22:58:46.335Z,10.73
2019-06-27T23:01:16.839Z,9.17
2019-06-27T23:03:47.596Z,7.50
2019-06-27T23:06:18.005Z,8.13
2019-06-27T23:08:48.656Z,8.67
2019-06-27T23:11:19.096Z,10.57
2019-06-27T23:13:49.407Z,10.60
2019-06-27T23:16:19.787Z,10.67
2019-06-27T23:18:50.178Z,9.97
2019-06-27T23:21:20.555Z,9.87
2019-06-27T23:23:51.395Z,10.93
2019-06-27T23:26:22.059Z,10.73
2019-06-27T23:28:52.407Z,10.27
2019-06-27T23:31:22.993Z,11.37
2019-06-27T23:33:53.634Z,8.83
2019-06-27T23:36:24.294Z,7.90
2019-06-27T23:38:54.745Z,9.23
2019-06-27T23:41:25.528Z,11.97
2019-06-27T23:43:56.168Z,10.93
2019-06-27T23:46:40.407Z,9.30
2019-06-27T23:49:11.402Z,11.40
2019-06-27T23:51:42.077Z,10.67
2019-06-27T23:54:12.444Z,11.57
2019-06-27T23:56:42.903Z,10.63
2019-06-27T23:59:13.270Z,8.77
